sensor_id;sensor_type;location;lat;lon;timestamp;P1;durP1;ratioP1;P2;durP2;ratioP2
7931;SDS011;4011;49.424;10.894;2023-06-26T00:03:58;5.45;;;4.53;;
7931;SDS011;4011;49.424;10.894;2023-06-26T00:09:20;5.60;;;4.20;;
7931;SDS011;4011;49.424;10.894;2023-06-26T00:14:43;6.18;;;4.70;;
7931;SDS011;4011;49.424;10.894;2023-06-26T00:20:04;5.78;;;4.53;;
7931;SDS011;4011;49.424;10.894;2023-06-26T00:25:26;5.65;;;4.50;;
7931;SDS011;4011;49.424;10.894;2023-06-26T00:30:49;5.80;;;4.90;;
7931;SDS011;4011;49.424;10.894;2023-06-26T00:36:10;5.57;;;4.68;;
7931;SDS011;4011;49.424;10.894;2023-06-26T00:41:32;5.78;;;4.70;;
7931;SDS011;4011;49.424;10.894;2023-06-26T00:46:55;5.75;;;4.57;;
7931;SDS011;4011;49.424;10.894;2023-06-26T00:52:17;5.68;;;4.80;;
7931;SDS011;4011;49.424;10.894;2023-06-26T00:57:39;6.78;;;4.53;;
7931;SDS011;4011;49.424;10.894;2023-06-26T01:03:02;5.78;;;5.00;;
7931;SDS011;4011;49.424;10.894;2023-06-26T01:08:23;5.85;;;4.60;;
7931;SDS011;4011;49.424;10.894;2023-06-26T01:13:45;6.00;;;4.78;;
7931;SDS011;4011;49.424;10.894;2023-06-26T01:19:27;5.88;;;4.40;;
7931;SDS011;4011;49.424;10.894;2023-06-26T01:25:01;5.45;;;4.50;;
7931;SDS011;4011;49.424;10.894;2023-06-26T01:30:25;5.57;;;4.20;;
7931;SDS011;4011;49.424;10.894;2023-06-26T01:35:47;6.15;;;5.00;;
7931;SDS011;4011;49.424;10.894;2023-06-26T01:41:10;6.43;;;4.90;;
7931;SDS011;4011;49.424;10.894;2023-06-26T01:46:39;5.70;;;4.82;;
7931;SDS011;4011;49.424;10.894;2023-06-26T01:52:03;6.00;;;4.88;;
7931;SDS011;4011;49.424;10.894;2023-06-26T01:57:27;6.30;;;5.18;;
7931;SDS011;4011;49.424;10.894;2023-06-26T02:02:52;6.05;;;4.80;;
7931;SDS011;4011;49.424;10.894;2023-06-26T02:08:14;6.32;;;5.10;;
7931;SDS011;4011;49.424;10.894;2023-06-26T02:13:35;6.07;;;4.97;;
7931;SDS011;4011;49.424;10.894;2023-06-26T02:18:58;6.72;;;5.28;;
7931;SDS011;4011;49.424;10.894;2023-06-26T02:24:20;6.22;;;4.95;;
7931;SDS011;4011;49.424;10.894;2023-06-26T02:29:41;6.18;;;4.97;;
7931;SDS011;4011;49.424;10.894;2023-06-26T02:35:04;6.20;;;5.10;;
7931;SDS011;4011;49.424;10.894;2023-06-26T02:40:25;6.55;;;5.28;;
7931;SDS011;4011;49.424;10.894;2023-06-26T02:45:47;5.57;;;4.85;;
7931;SDS011;4011;49.424;10.894;2023-06-26T02:51:10;6.30;;;4.63;;
7931;SDS011;4011;49.424;10.894;2023-06-26T02:56:31;5.90;;;4.90;;
7931;SDS011;4011;49.424;10.894;2023-06-26T03:01:53;6.15;;;5.00;;
7931;SDS011;4011;49.424;10.894;2023-06-26T03:07:16;6.65;;;5.50;;
7931;SDS011;4011;49.424;10.894;2023-06-26T03:12:37;6.00;;;5.00;;
7931;SDS011;4011;49.424;10.894;2023-06-26T03:17:58;6.85;;;4.80;;
7931;SDS011;4011;49.424;10.894;2023-06-26T03:23:21;6.55;;;4.53;;
7931;SDS011;4011;49.424;10.894;2023-06-26T03:28:43;6.80;;;5.53;;
7931;SDS011;4011;49.424;10.894;2023-06-26T03:34:04;6.03;;;5.15;;
7931;SDS011;4011;49.424;10.894;2023-06-26T03:39:28;6.60;;;4.80;;
7931;SDS011;4011;49.424;10.894;2023-06-26T03:44:59;6.43;;;4.95;;
7931;SDS011;4011;49.424;10.894;2023-06-26T03:50:25;6.15;;;5.18;;
7931;SDS011;4011;49.424;10.894;2023-06-26T03:55:48;6.50;;;5.22;;
7931;SDS011;4011;49.424;10.894;2023-06-26T04:01:10;6.80;;;5.07;;
7931;SDS011;4011;49.424;10.894;2023-06-26T04:06:32;6.07;;;4.90;;
7931;SDS011;4011;49.424;10.894;2023-06-26T04:11:56;6.32;;;5.47;;
7931;SDS011;4011;49.424;10.894;2023-06-26T04:17:17;5.82;;;4.70;;
7931;SDS011;4011;49.424;10.894;2023-06-26T04:22:39;6.68;;;4.78;;
7931;SDS011;4011;49.424;10.894;2023-06-26T04:28:04;5.82;;;4.80;;
7931;SDS011;4011;49.424;10.894;2023-06-26T04:33:26;6.60;;;5.50;;
7931;SDS011;4011;49.424;10.894;2023-06-26T04:38:47;6.65;;;4.95;;
7931;SDS011;4011;49.424;10.894;2023-06-26T04:44:11;5.90;;;4.68;;
7931;SDS011;4011;49.424;10.894;2023-06-26T04:49:32;5.88;;;4.80;;
7931;SDS011;4011;49.424;10.894;2023-06-26T04:54:54;6.72;;;5.10;;
7931;SDS011;4011;49.424;10.894;2023-06-26T05:00:17;6.25;;;5.38;;
7931;SDS011;4011;49.424;10.894;2023-06-26T05:05:39;6.03;;;4.72;;
7931;SDS011;4011;49.424;10.894;2023-06-26T05:11:00;6.57;;;5.07;;
7931;SDS011;4011;49.424;10.894;2023-06-26T05:16:25;5.85;;;5.03;;
7931;SDS011;4011;49.424;10.894;2023-06-26T05:21:46;6.57;;;5.43;;
7931;SDS011;4011;49.424;10.894;2023-06-26T05:27:09;6.50;;;4.95;;
7931;SDS011;4011;49.424;10.894;2023-06-26T05:32:35;7.00;;;5.22;;
7931;SDS011;4011;49.424;10.894;2023-06-26T05:37:57;5.75;;;4.88;;
7931;SDS011;4011;49.424;10.894;2023-06-26T05:43:19;6.55;;;5.80;;
7931;SDS011;4011;49.424;10.894;2023-06-26T05:48:42;6.90;;;5.88;;
7931;SDS011;4011;49.424;10.894;2023-06-26T05:54:04;7.70;;;5.30;;
7931;SDS011;4011;49.424;10.894;2023-06-26T05:59:26;6.93;;;5.57;;
7931;SDS011;4011;49.424;10.894;2023-06-26T06:04:49;7.45;;;6.28;;
7931;SDS011;4011;49.424;10.894;2023-06-26T06:10:10;7.43;;;5.50;;
7931;SDS011;4011;49.424;10.894;2023-06-26T06:15:32;8.57;;;6.10;;
7931;SDS011;4011;49.424;10.894;2023-06-26T06:20:54;8.60;;;6.00;;
7931;SDS011;4011;49.424;10.894;2023-06-26T06:26:16;8.63;;;7.20;;
7931;SDS011;4011;49.424;10.894;2023-06-26T06:31:38;8.25;;;6.32;;
7931;SDS011;4011;49.424;10.894;2023-06-26T06:37:01;7.50;;;5.72;;
7931;SDS011;4011;49.424;10.894;2023-06-26T06:42:22;8.82;;;6.28;;
7931;SDS011;4011;49.424;10.894;2023-06-26T06:47:44;8.65;;;6.82;;
7931;SDS011;4011;49.424;10.894;2023-06-26T06:53:08;7.47;;;6.50;;
7931;SDS011;4011;49.424;10.894;2023-06-26T06:58:30;8.07;;;5.88;;
7931;SDS011;4011;49.424;10.894;2023-06-26T07:03:54;7.35;;;5.50;;
7931;SDS011;4011;49.424;10.894;2023-06-26T07:09:17;7.88;;;6.15;;
7931;SDS011;4011;49.424;10.894;2023-06-26T07:14:38;8.70;;;6.90;;
7931;SDS011;4011;49.424;10.894;2023-06-26T07:20:00;7.38;;;5.85;;
7931;SDS011;4011;49.424;10.894;2023-06-26T07:25:28;8.13;;;6.43;;
7931;SDS011;4011;49.424;10.894;2023-06-26T07:30:49;8.88;;;6.18;;
7931;SDS011;4011;49.424;10.894;2023-06-26T07:36:11;7.60;;;6.80;;
7931;SDS011;4011;49.424;10.894;2023-06-26T07:41:33;6.97;;;5.60;;
7931;SDS011;4011;49.424;10.894;2023-06-26T07:46:55;7.22;;;5.50;;
7931;SDS011;4011;49.424;10.894;2023-06-26T07:52:17;7.20;;;5.47;;
7931;SDS011;4011;49.424;10.894;2023-06-26T07:57:42;8.48;;;6.55;;
7931;SDS011;4011;49.424;10.894;2023-06-26T08:03:03;8.93;;;5.88;;
7931;SDS011;4011;49.424;10.894;2023-06-26T08:08:25;7.25;;;5.90;;
7931;SDS011;4011;49.424;10.894;2023-06-26T08:13:48;7.68;;;6.25;;
7931;SDS011;4011;49.424;10.894;2023-06-26T08:19:09;6.95;;;5.43;;
7931;SDS011;4011;49.424;10.894;2023-06-26T08:24:31;7.72;;;5.95;;
7931;SDS011;4011;49.424;10.894;2023-06-26T08:29:54;8.43;;;5.57;;
7931;SDS011;4011;49.424;10.894;2023-06-26T08:35:16;7.25;;;5.72;;
7931;SDS011;4011;49.424;10.894;2023-06-26T08:40:37;6.65;;;5.35;;
7931;SDS011;4011;49.424;10.894;2023-06-26T08:46:00;6.60;;;5.53;;
7931;SDS011;4011;49.424;10.894;2023-06-26T08:51:23;6.75;;;5.20;;
7931;SDS011;4011;49.424;10.894;2023-06-26T08:56:45;6.75;;;5.40;;
7931;SDS011;4011;49.424;10.894;2023-06-26T09:02:13;6.65;;;5.10;;
7931;SDS011;4011;49.424;10.894;2023-06-26T09:07:35;6.80;;;5.78;;
7931;SDS011;4011;49.424;10.894;2023-06-26T09:12:58;7.47;;;5.75;;
7931;SDS011;4011;49.424;10.894;2023-06-26T09:18:22;6.38;;;5.10;;
7931;SDS011;4011;49.424;10.894;2023-06-26T09:23:44;6.55;;;5.13;;
7931;SDS011;4011;49.424;10.894;2023-06-26T09:29:05;6.53;;;5.30;;
7931;SDS011;4011;49.424;10.894;2023-06-26T09:34:31;6.30;;;5.00;;
7931;SDS011;4011;49.424;10.894;2023-06-26T09:39:52;5.53;;;4.90;;
7931;SDS011;4011;49.424;10.894;2023-06-26T09:45:17;6.80;;;4.90;;
7931;SDS011;4011;49.424;10.894;2023-06-26T09:50:41;6.65;;;5.00;;
7931;SDS011;4011;49.424;10.894;2023-06-26T09:56:05;5.95;;;4.72;;
7931;SDS011;4011;49.424;10.894;2023-06-26T10:01:27;6.63;;;5.15;;
7931;SDS011;4011;49.424;10.894;2023-06-26T10:06:50;6.65;;;4.90;;
7931;SDS011;4011;49.424;10.894;2023-06-26T10:12:14;5.90;;;4.90;;
7931;SDS011;4011;49.424;10.894;2023-06-26T10:17:38;6.45;;;4.95;;
7931;SDS011;4011;49.424;10.894;2023-06-26T10:23:01;6.22;;;4.82;;
7931;SDS011;4011;49.424;10.894;2023-06-26T10:28:24;6.22;;;4.95;;
7931;SDS011;4011;49.424;10.894;2023-06-26T10:33:46;6.00;;;5.00;;
7931;SDS011;4011;49.424;10.894;2023-06-26T10:39:09;6.28;;;4.75;;
7931;SDS011;4011;49.424;10.894;2023-06-26T10:44:39;6.03;;;4.68;;
7931;SDS011;4011;49.424;10.894;2023-06-26T10:50:16;5.70;;;4.60;;
7931;SDS011;4011;49.424;10.894;2023-06-26T10:55:42;5.60;;;4.43;;
7931;SDS011;4011;49.424;10.894;2023-06-26T11:01:14;5.30;;;4.40;;
7931;SDS011;4011;49.424;10.894;2023-06-26T11:06:36;5.57;;;4.65;;
7931;SDS011;4011;49.424;10.894;2023-06-26T11:12:00;5.97;;;4.50;;
7931;SDS011;4011;49.424;10.894;2023-06-26T11:17:28;5.68;;;4.22;;
7931;SDS011;4011;49.424;10.894;2023-06-26T11:22:51;6.07;;;4.47;;
7931;SDS011;4011;49.424;10.894;2023-06-26T11:28:15;5.90;;;4.63;;
7931;SDS011;4011;49.424;10.894;2023-06-26T11:33:37;6.18;;;4.80;;
7931;SDS011;4011;49.424;10.894;2023-06-26T11:38:59;5.50;;;4.38;;
7931;SDS011;4011;49.424;10.894;2023-06-26T11:44:22;5.75;;;4.53;;
7931;SDS011;4011;49.424;10.894;2023-06-26T11:49:44;5.40;;;4.40;;
7931;SDS011;4011;49.424;10.894;2023-06-26T11:55:08;5.13;;;4.00;;
7931;SDS011;4011;49.424;10.894;2023-06-26T12:00:32;4.95;;;3.88;;
7931;SDS011;4011;49.424;10.894;2023-06-26T12:05:53;5.55;;;4.13;;
7931;SDS011;4011;49.424;10.894;2023-06-26T12:11:16;5.30;;;4.30;;
7931;SDS011;4011;49.424;10.894;2023-06-26T12:16:40;5.20;;;4.10;;
7931;SDS011;4011;49.424;10.894;2023-06-26T12:22:05;4.88;;;3.63;;
7931;SDS011;4011;49.424;10.894;2023-06-26T12:27:26;4.90;;;4.00;;
7931;SDS011;4011;49.424;10.894;2023-06-26T12:32:50;4.97;;;4.25;;
7931;SDS011;4011;49.424;10.894;2023-06-26T12:38:11;5.47;;;4.47;;
7931;SDS011;4011;49.424;10.894;2023-06-26T12:43:35;5.00;;;3.85;;
7931;SDS011;4011;49.424;10.894;2023-06-26T12:49:00;5.85;;;3.92;;
7931;SDS011;4011;49.424;10.894;2023-06-26T12:54:23;5.10;;;4.03;;
7931;SDS011;4011;49.424;10.894;2023-06-26T12:59:44;5.18;;;4.07;;
7931;SDS011;4011;49.424;10.894;2023-06-26T13:05:08;5.22;;;3.88;;
7931;SDS011;4011;49.424;10.894;2023-06-26T13:10:30;4.53;;;3.60;;
7931;SDS011;4011;49.424;10.894;2023-06-26T13:15:51;4.82;;;4.00;;
7931;SDS011;4011;49.424;10.894;2023-06-26T13:21:14;5.50;;;4.22;;
7931;SDS011;4011;49.424;10.894;2023-06-26T13:26:36;4.82;;;3.85;;
7931;SDS011;4011;49.424;10.894;2023-06-26T13:31:58;5.10;;;3.58;;
7931;SDS011;4011;49.424;10.894;2023-06-26T13:37:20;5.13;;;4.00;;
7931;SDS011;4011;49.424;10.894;2023-06-26T13:42:43;5.40;;;4.43;;
7931;SDS011;4011;49.424;10.894;2023-06-26T13:48:05;4.82;;;3.75;;
7931;SDS011;4011;49.424;10.894;2023-06-26T13:53:28;4.85;;;3.67;;
7931;SDS011;4011;49.424;10.894;2023-06-26T13:58:50;4.78;;;3.60;;
7931;SDS011;4011;49.424;10.894;2023-06-26T14:04:11;5.22;;;4.18;;
7931;SDS011;4011;49.424;10.894;2023-06-26T14:09:35;5.28;;;3.97;;
7931;SDS011;4011;49.424;10.894;2023-06-26T14:14:56;5.15;;;4.00;;
7931;SDS011;4011;49.424;10.894;2023-06-26T14:20:17;5.53;;;4.00;;
7931;SDS011;4011;49.424;10.894;2023-06-26T14:25:42;4.93;;;3.97;;
7931;SDS011;4011;49.424;10.894;2023-06-26T14:31:05;5.15;;;4.10;;
7931;SDS011;4011;49.424;10.894;2023-06-26T14:36:26;4.80;;;3.70;;
7931;SDS011;4011;49.424;10.894;2023-06-26T14:41:49;5.13;;;3.95;;
7931;SDS011;4011;49.424;10.894;2023-06-26T14:47:11;4.68;;;3.67;;
7931;SDS011;4011;49.424;10.894;2023-06-26T14:52:32;5.22;;;4.30;;
7931;SDS011;4011;49.424;10.894;2023-06-26T14:57:55;4.80;;;3.60;;
7931;SDS011;4011;49.424;10.894;2023-06-26T15:03:16;5.20;;;3.83;;
7931;SDS011;4011;49.424;10.894;2023-06-26T15:08:38;5.10;;;3.65;;
7931;SDS011;4011;49.424;10.894;2023-06-26T15:14:01;5.10;;;4.03;;
7931;SDS011;4011;49.424;10.894;2023-06-26T15:19:22;4.85;;;3.92;;
7931;SDS011;4011;49.424;10.894;2023-06-26T15:24:44;4.50;;;3.60;;
7931;SDS011;4011;49.424;10.894;2023-06-26T15:30:08;5.38;;;3.90;;
7931;SDS011;4011;49.424;10.894;2023-06-26T15:35:29;4.88;;;3.53;;
7931;SDS011;4011;49.424;10.894;2023-06-26T15:40:51;5.22;;;4.30;;
7931;SDS011;4011;49.424;10.894;2023-06-26T15:46:14;5.40;;;4.10;;
7931;SDS011;4011;49.424;10.894;2023-06-26T15:51:36;5.07;;;3.88;;
7931;SDS011;4011;49.424;10.894;2023-06-26T15:56:58;4.90;;;3.75;;
7931;SDS011;4011;49.424;10.894;2023-06-26T16:02:21;5.25;;;4.18;;
7931;SDS011;4011;49.424;10.894;2023-06-26T16:07:42;5.45;;;4.00;;
7931;SDS011;4011;49.424;10.894;2023-06-26T16:13:04;4.70;;;3.70;;
7931;SDS011;4011;49.424;10.894;2023-06-26T16:18:27;5.00;;;3.80;;
7931;SDS011;4011;49.424;10.894;2023-06-26T16:23:50;5.22;;;4.20;;
7931;SDS011;4011;49.424;10.894;2023-06-26T16:29:11;5.63;;;4.32;;
7931;SDS011;4011;49.424;10.894;2023-06-26T16:34:35;4.97;;;3.83;;
7931;SDS011;4011;49.424;10.894;2023-06-26T16:39:56;5.10;;;3.80;;
7931;SDS011;4011;49.424;10.894;2023-06-26T16:45:18;5.40;;;4.18;;
7931;SDS011;4011;49.424;10.894;2023-06-26T16:50:41;4.85;;;4.10;;
7931;SDS011;4011;49.424;10.894;2023-06-26T16:56:02;5.15;;;4.00;;
7931;SDS011;4011;49.424;10.894;2023-06-26T17:01:24;5.80;;;4.20;;
7931;SDS011;4011;49.424;10.894;2023-06-26T17:06:47;5.70;;;4.40;;
7931;SDS011;4011;49.424;10.894;2023-06-26T17:12:08;5.60;;;4.30;;
7931;SDS011;4011;49.424;10.894;2023-06-26T17:17:30;5.35;;;4.38;;
7931;SDS011;4011;49.424;10.894;2023-06-26T17:22:53;4.90;;;3.83;;
7931;SDS011;4011;49.424;10.894;2023-06-26T17:28:18;5.13;;;3.95;;
7931;SDS011;4011;49.424;10.894;2023-06-26T17:33:40;4.90;;;4.25;;
7931;SDS011;4011;49.424;10.894;2023-06-26T17:39:03;5.30;;;4.30;;
7931;SDS011;4011;49.424;10.894;2023-06-26T17:44:25;5.20;;;3.97;;
7931;SDS011;4011;49.424;10.894;2023-06-26T17:49:48;5.47;;;3.90;;
7931;SDS011;4011;49.424;10.894;2023-06-26T17:55:11;4.85;;;4.10;;
7931;SDS011;4011;49.424;10.894;2023-06-26T18:00:33;5.55;;;4.47;;
7931;SDS011;4011;49.424;10.894;2023-06-26T18:05:54;5.05;;;4.00;;
7931;SDS011;4011;49.424;10.894;2023-06-26T18:11:17;5.65;;;3.95;;
7931;SDS011;4011;49.424;10.894;2023-06-26T18:16:38;5.10;;;4.10;;
7931;SDS011;4011;49.424;10.894;2023-06-26T18:22:01;5.03;;;4.20;;
7931;SDS011;4011;49.424;10.894;2023-06-26T18:27:24;5.90;;;4.30;;
7931;SDS011;4011;49.424;10.894;2023-06-26T18:32:45;5.57;;;4.22;;
7931;SDS011;4011;49.424;10.894;2023-06-26T18:38:07;5.40;;;4.25;;
7931;SDS011;4011;49.424;10.894;2023-06-26T18:43:32;6.45;;;4.78;;
7931;SDS011;4011;49.424;10.894;2023-06-26T18:48:59;6.18;;;4.40;;
7931;SDS011;4011;49.424;10.894;2023-06-26T18:54:21;5.47;;;4.53;;
7931;SDS011;4011;49.424;10.894;2023-06-26T18:59:44;5.28;;;4.22;;
7931;SDS011;4011;49.424;10.894;2023-06-26T19:05:05;6.00;;;4.82;;
7931;SDS011;4011;49.424;10.894;2023-06-26T19:10:27;5.47;;;4.60;;
7931;SDS011;4011;49.424;10.894;2023-06-26T19:15:49;4.78;;;3.95;;
7931;SDS011;4011;49.424;10.894;2023-06-26T19:21:11;5.38;;;4.50;;
7931;SDS011;4011;49.424;10.894;2023-06-26T19:26:32;6.15;;;4.45;;
7931;SDS011;4011;49.424;10.894;2023-06-26T19:31:56;5.60;;;4.70;;
7931;SDS011;4011;49.424;10.894;2023-06-26T19:37:18;6.03;;;4.72;;
7931;SDS011;4011;49.424;10.894;2023-06-26T19:42:40;5.25;;;4.45;;
7931;SDS011;4011;49.424;10.894;2023-06-26T19:48:03;5.97;;;4.68;;
7931;SDS011;4011;49.424;10.894;2023-06-26T19:53:25;5.07;;;4.35;;
7931;SDS011;4011;49.424;10.894;2023-06-26T19:58:46;5.25;;;4.15;;
7931;SDS011;4011;49.424;10.894;2023-06-26T20:04:09;6.05;;;4.75;;
7931;SDS011;4011;49.424;10.894;2023-06-26T20:09:31;6.28;;;4.63;;
7931;SDS011;4011;49.424;10.894;2023-06-26T20:14:52;5.65;;;4.63;;
7931;SDS011;4011;49.424;10.894;2023-06-26T20:20:15;6.05;;;4.40;;
7931;SDS011;4011;49.424;10.894;2023-06-26T20:25:36;5.55;;;4.43;;
7931;SDS011;4011;49.424;10.894;2023-06-26T20:30:58;5.10;;;4.05;;
7931;SDS011;4011;49.424;10.894;2023-06-26T20:36:21;6.05;;;4.43;;
7931;SDS011;4011;49.424;10.894;2023-06-26T20:41:43;5.13;;;4.47;;
7931;SDS011;4011;49.424;10.894;2023-06-26T20:47:05;5.45;;;4.20;;
7931;SDS011;4011;49.424;10.894;2023-06-26T20:52:32;5.03;;;4.00;;
7931;SDS011;4011;49.424;10.894;2023-06-26T20:57:54;5.72;;;4.68;;
7931;SDS011;4011;49.424;10.894;2023-06-26T21:03:19;5.25;;;4.28;;
7931;SDS011;4011;49.424;10.894;2023-06-26T21:08:42;5.47;;;4.00;;
7931;SDS011;4011;49.424;10.894;2023-06-26T21:14:03;5.13;;;4.10;;
7931;SDS011;4011;49.424;10.894;2023-06-26T21:19:26;4.85;;;4.18;;
7931;SDS011;4011;49.424;10.894;2023-06-26T21:24:49;5.47;;;4.47;;
7931;SDS011;4011;49.424;10.894;2023-06-26T21:30:11;6.18;;;4.07;;
7931;SDS011;4011;49.424;10.894;2023-06-26T21:35:33;5.10;;;3.70;;
7931;SDS011;4011;49.424;10.894;2023-06-26T21:40:56;5.00;;;3.53;;
7931;SDS011;4011;49.424;10.894;2023-06-26T21:46:18;5.07;;;4.53;;
7931;SDS011;4011;49.424;10.894;2023-06-26T21:51:39;5.35;;;4.22;;
7931;SDS011;4011;49.424;10.894;2023-06-26T21:57:02;5.45;;;4.00;;
7931;SDS011;4011;49.424;10.894;2023-06-26T22:02:24;4.90;;;3.92;;
7931;SDS011;4011;49.424;10.894;2023-06-26T22:07:45;5.07;;;4.05;;
7931;SDS011;4011;49.424;10.894;2023-06-26T22:13:09;5.10;;;4.03;;
7931;SDS011;4011;49.424;10.894;2023-06-26T22:18:30;5.45;;;3.65;;
7931;SDS011;4011;49.424;10.894;2023-06-26T22:23:52;4.72;;;3.45;;
7931;SDS011;4011;49.424;10.894;2023-06-26T22:29:15;4.63;;;3.25;;
7931;SDS011;4011;49.424;10.894;2023-06-26T22:34:36;4.47;;;3.70;;
7931;SDS011;4011;49.424;10.894;2023-06-26T22:39:58;5.38;;;3.30;;
7931;SDS011;4011;49.424;10.894;2023-06-26T22:45:20;4.50;;;3.55;;
7931;SDS011;4011;49.424;10.894;2023-06-26T22:50:42;4.50;;;3.50;;
7931;SDS011;4011;49.424;10.894;2023-06-26T22:56:03;5.03;;;3.63;;
7931;SDS011;4011;49.424;10.894;2023-06-26T23:01:27;5.15;;;3.50;;
7931;SDS011;4011;49.424;10.894;2023-06-26T23:06:48;4.55;;;3.42;;
7931;SDS011;4011;49.424;10.894;2023-06-26T23:12:11;4.20;;;3.40;;
7931;SDS011;4011;49.424;10.894;2023-06-26T23:17:35;4.78;;;3.15;;
7931;SDS011;4011;49.424;10.894;2023-06-26T23:22:56;4.95;;;3.35;;
7931;SDS011;4011;49.424;10.894;2023-06-26T23:28:20;4.50;;;3.20;;
7931;SDS011;4011;49.424;10.894;2023-06-26T23:33:43;4.47;;;3.00;;
7931;SDS011;4011;49.424;10.894;2023-06-26T23:39:05;4.15;;;3.13;;
7931;SDS011;4011;49.424;10.894;2023-06-26T23:44:28;3.97;;;3.20;;
7931;SDS011;4011;49.424;10.894;2023-06-26T23:49:51;3.88;;;2.90;;
7931;SDS011;4011;49.424;10.894;2023-06-26T23:55:12;4.82;;;2.95;;
